Terminal Aerodrome Forecast
Issued by NWS

Home | Current Version | Previous Version | Text Only | Print | Product List | Glossary On
Versions: 1 2 3 4 5 6 7 8 9 10 11 12 13 14 15 16 17 18 19 20
000
FTUS42 KMHX 192000 AAA
TAFISO
TAF AMD
KISO 192022Z 1920/2018 03015G25KT 2SM -RA SCT005 OVC015
     FM192300 04015G20KT 5SM BR OVC010
     FM201000 03018G25KT P6SM VCSH OVC025
      AMD LTD TO CLD VIS AND WIND=

USA.gov is the U.S. government's official web portal to all federal, state and local government web resources and services.